createdAt,value
2017-03-30T00:00:04.764Z,74410
2017-03-30T00:00:14.850Z,74415
2017-03-30T00:00:24.938Z,74413
2017-03-30T00:00:34.454Z,74415
2017-03-30T00:00:44.542Z,74408
2017-03-30T00:00:54.055Z,74411
2017-03-30T00:01:04.144Z,74412
2017-03-30T00:01:13.946Z,74410
2017-03-30T00:01:24.036Z,74408
2017-03-30T00:01:33.560Z,74411
2017-03-30T00:01:43.649Z,74415
2017-03-30T00:01:53.738Z,74407
2017-03-30T00:02:03.824Z,74411
2017-03-30T00:02:13.632Z,74408
2017-03-30T00:02:23.724Z,74408
2017-03-30T00:02:33.815Z,74407
2017-03-30T00:02:43.334Z,74407
2017-03-30T00:02:53.422Z,74407
2017-03-30T00:03:03.220Z,74408
2017-03-30T00:03:13.019Z,74410
2017-03-30T00:03:23.105Z,74409
2017-03-30T00:03:33.198Z,74409
2017-03-30T00:03:43.315Z,74409
2017-03-30T00:03:52.823Z,74410
2017-03-30T00:04:02.626Z,74409
2017-03-30T00:04:12.716Z,74406
2017-03-30T00:04:22.800Z,74410
2017-03-30T00:04:32.884Z,74407
2017-03-30T00:04:42.684Z,74409
2017-03-30T00:04:52.773Z,74410
2017-03-30T00:05:02.858Z,74410
2017-03-30T00:05:12.681Z,74408
2017-03-30T00:05:22.767Z,74405
2017-03-30T00:05:32.285Z,74411
2017-03-30T00:05:42.367Z,74407
2017-03-30T00:05:52.180Z,74404
2017-03-30T00:06:02.267Z,74407
2017-03-30T00:06:12.070Z,74409
2017-03-30T00:06:22.161Z,74404
2017-03-30T00:06:32.250Z,74406
2017-03-30T00:06:42.341Z,74406
2017-03-30T00:06:52.150Z,74404
2017-03-30T00:07:02.235Z,74405
2017-03-30T00:07:12.328Z,74405
2017-03-30T00:07:22.416Z,74410
2017-03-30T00:07:32.217Z,74409
2017-03-30T00:07:42.306Z,74407
2017-03-30T00:07:52.136Z,74406
2017-03-30T00:08:02.235Z,74403
2017-03-30T00:08:11.759Z,74404
2017-03-30T00:08:21.879Z,74410
2017-03-30T00:08:31.963Z,74408
2017-03-30T00:08:41.769Z,74408
2017-03-30T00:08:51.858Z,74407
2017-03-30T00:09:01.953Z,74410
2017-03-30T00:09:12.048Z,74407
2017-03-30T00:09:22.148Z,74409
2017-03-30T00:09:32.240Z,74406
2017-03-30T00:09:42.328Z,74402
2017-03-30T00:09:51.844Z,74405
2017-03-30T00:10:01.935Z,74403
2017-03-30T00:10:12.023Z,74402
2017-03-30T00:10:22.113Z,74409
2017-03-30T00:10:32.204Z,74407
2017-03-30T00:10:42.293Z,74403
2017-03-30T00:10:52.731Z,74406
2017-03-30T00:11:02.823Z,74402
2017-03-30T00:11:12.918Z,74408
2017-03-30T00:11:23.010Z,74404
2017-03-30T00:11:32.819Z,74408
2017-03-30T00:11:42.618Z,74403
2017-03-30T00:11:52.711Z,74405
2017-03-30T00:12:02.800Z,74409
2017-03-30T00:12:12.318Z,74406
2017-03-30T00:12:22.121Z,74407
2017-03-30T00:12:31.917Z,74410
2017-03-30T00:12:41.722Z,74409
2017-03-30T00:12:51.529Z,74409
2017-03-30T00:13:01.623Z,74406
2017-03-30T00:13:11.429Z,74405
2017-03-30T00:13:21.519Z,74406
2017-03-30T00:13:31.613Z,74404
2017-03-30T00:13:41.415Z,74405
2017-03-30T00:13:51.500Z,74407
2017-03-30T00:14:01.589Z,74408
2017-03-30T00:14:11.392Z,74405
2017-03-30T00:14:21.483Z,74403
2017-03-30T00:14:31.575Z,74407
2017-03-30T00:14:41.376Z,74411
2017-03-30T00:14:51.462Z,74406
2017-03-30T00:15:01.550Z,74412
2017-03-30T00:15:11.641Z,74403
2017-03-30T00:15:21.730Z,74410
2017-03-30T00:15:31.825Z,74407
2017-03-30T00:15:41.626Z,74408
2017-03-30T00:15:51.720Z,74409
2017-03-30T00:16:01.804Z,74402
2017-03-30T00:16:11.895Z,74404
2017-03-30T00:16:21.986Z,74405
2017-03-30T00:16:32.079Z,74406
2017-03-30T00:16:41.599Z,74409
2017-03-30T00:16:51.690Z,74408
2017-03-30T00:17:01.506Z,74408
2017-03-30T00:17:11.598Z,74404
2017-03-30T00:17:21.400Z,74403
2017-03-30T00:17:31.488Z,74399
2017-03-30T00:17:41.581Z,74403
2017-03-30T00:17:51.667Z,74406
2017-03-30T00:18:01.466Z,74404
2017-03-30T00:18:11.561Z,74408
2017-03-30T00:18:21.659Z,74404
2017-03-30T00:18:31.753Z,74405
2017-03-30T00:18:41.844Z,74404
2017-03-30T00:18:51.933Z,74403
2017-03-30T00:19:01.743Z,74405
2017-03-30T00:19:11.832Z,74400
2017-03-30T00:19:21.638Z,74401
2017-03-30T00:19:31.725Z,74402
2017-03-30T00:19:41.811Z,74404
2017-03-30T00:19:51.901Z,74405
2017-03-30T00:20:01.993Z,74404
2017-03-30T00:20:12.088Z,74406
2017-03-30T00:20:22.183Z,74404
2017-03-30T00:20:32.273Z,74403
2017-03-30T00:20:42.369Z,74403
2017-03-30T00:20:52.458Z,74403
2017-03-30T00:21:02.553Z,74403
2017-03-30T00:21:12.641Z,74406
2017-03-30T00:21:22.733Z,74402
2017-03-30T00:21:32.537Z,74403
2017-03-30T00:21:42.625Z,74404
2017-03-30T00:21:52.716Z,74405
2017-03-30T00:22:02.809Z,74406
2017-03-30T00:22:12.899Z,74402
2017-03-30T00:22:22.996Z,74406
2017-03-30T00:22:32.799Z,74405
2017-03-30T00:22:42.888Z,74402
2017-03-30T00:22:52.983Z,74406
2017-03-30T00:23:02.781Z,74397
2017-03-30T00:23:12.865Z,74400
2017-03-30T00:23:22.960Z,74402
2017-03-30T00:23:33.041Z,74402
2017-03-30T00:23:43.129Z,74405
2017-03-30T00:23:52.640Z,74405
2017-03-30T00:24:02.727Z,74408
2017-03-30T00:24:12.816Z,74397
2017-03-30T00:24:22.617Z,74402
2017-03-30T00:24:32.709Z,74400
2017-03-30T00:24:42.513Z,74400
2017-03-30T00:24:52.605Z,74403
2017-03-30T00:25:02.693Z,74399
2017-03-30T00:25:12.504Z,74401
2017-03-30T00:25:22.306Z,74402
2017-03-30T00:25:32.401Z,74404
2017-03-30T00:25:42.486Z,74402
2017-03-30T00:25:52.577Z,74403
2017-03-30T00:26:02.664Z,74398
2017-03-30T00:26:12.759Z,74402
2017-03-30T00:26:22.846Z,74400
2017-03-30T00:26:32.649Z,74397
2017-03-30T00:26:42.449Z,74396
2017-03-30T00:26:52.537Z,74401
2017-03-30T00:27:02.628Z,74400
2017-03-30T00:27:12.714Z,74396
2017-03-30T00:27:22.232Z,74400
2017-03-30T00:27:32.322Z,74400
2017-03-30T00:27:42.417Z,74399
2017-03-30T00:27:52.510Z,74400
2017-03-30T00:28:02.595Z,74400
2017-03-30T00:28:12.681Z,74399
2017-03-30T00:28:22.766Z,74399
2017-03-30T00:28:32.575Z,74401
2017-03-30T00:28:42.663Z,74398
2017-03-30T00:28:52.459Z,74402
2017-03-30T00:29:02.590Z,74403
2017-03-30T00:29:12.674Z,74399
2017-03-30T00:29:22.199Z,74401
2017-03-30T00:29:32.294Z,74402
2017-03-30T00:29:42.382Z,74399
2017-03-30T00:29:52.475Z,74396
2017-03-30T00:30:02.567Z,74395
2017-03-30T00:30:12.665Z,74397
2017-03-30T00:30:22.751Z,74394
2017-03-30T00:30:32.553Z,74397
2017-03-30T00:30:42.645Z,74399
2017-03-30T00:30:52.160Z,74394
2017-03-30T00:31:01.965Z,74397
2017-03-30T00:31:11.765Z,74399
2017-03-30T00:31:21.855Z,74397
2017-03-30T00:31:31.369Z,74396
2017-03-30T00:31:41.173Z,74397
2017-03-30T00:31:51.278Z,74394
2017-03-30T00:32:01.088Z,74396
2017-03-30T00:32:11.180Z,74397
2017-03-30T00:32:21.270Z,74397
2017-03-30T00:32:31.073Z,74397
2017-03-30T00:32:40.871Z,74399
2017-03-30T00:32:50.961Z,74393
2017-03-30T00:33:01.053Z,74399
2017-03-30T00:33:11.141Z,74397
2017-03-30T00:33:21.235Z,74396
2017-03-30T00:33:31.320Z,74394
2017-03-30T00:33:41.132Z,74397
2017-03-30T00:33:51.222Z,74394
2017-03-30T00:34:01.315Z,74395
2017-03-30T00:34:11.410Z,74391
2017-03-30T00:34:21.498Z,74395
2017-03-30T00:34:31.296Z,74395
2017-03-30T00:34:41.097Z,74394
2017-03-30T00:34:51.190Z,74396
2017-03-30T00:35:01.292Z,74396
2017-03-30T00:35:11.379Z,74395
2017-03-30T00:35:21.178Z,74394
2017-03-30T00:35:31.276Z,74393
2017-03-30T00:35:41.368Z,74390
2017-03-30T00:35:50.882Z,74393
2017-03-30T00:36:00.980Z,74390
2017-03-30T00:36:10.783Z,74390
2017-03-30T00:36:20.876Z,74392
2017-03-30T00:36:30.970Z,74393
2017-03-30T00:36:41.061Z,74391
2017-03-30T00:36:50.870Z,74392
2017-03-30T00:37:00.961Z,74394
2017-03-30T00:37:10.761Z,74395
2017-03-30T00:37:20.850Z,74391
2017-03-30T00:37:30.944Z,74392
2017-03-30T00:37:40.753Z,74391
2017-03-30T00:37:50.555Z,74392
2017-03-30T00:38:00.638Z,74393
2017-03-30T00:38:10.731Z,74393
2017-03-30T00:38:20.827Z,74390
2017-03-30T00:38:30.627Z,74394
2017-03-30T00:38:40.720Z,74394
2017-03-30T00:38:50.523Z,74392
2017-03-30T00:39:00.612Z,74389
2017-03-30T00:39:10.701Z,74394
2017-03-30T00:39:20.501Z,74389
2017-03-30T00:39:30.304Z,74390
2017-03-30T00:39:40.392Z,74392
2017-03-30T00:39:50.483Z,74391
2017-03-30T00:40:00.578Z,74392
2017-03-30T00:40:10.091Z,74391
2017-03-30T00:40:19.888Z,74388
2017-03-30T00:40:29.691Z,74390
2017-03-30T00:40:39.496Z,74391
2017-03-30T00:40:49.587Z,74393
2017-03-30T00:40:59.676Z,74391
2017-03-30T00:41:09.765Z,74393
2017-03-30T00:41:19.865Z,74391
2017-03-30T00:41:29.678Z,74390
2017-03-30T00:41:39.477Z,74392
2017-03-30T00:41:49.570Z,74389
2017-03-30T00:41:59.654Z,74392
2017-03-30T00:42:09.455Z,74390
2017-03-30T00:42:19.550Z,74392
2017-03-30T00:42:29.355Z,74390
2017-03-30T00:42:39.437Z,74394
2017-03-30T00:42:48.947Z,74394
2017-03-30T00:42:59.035Z,74394
2017-03-30T00:43:08.848Z,74395
2017-03-30T00:43:18.938Z,74391
2017-03-30T00:43:28.740Z,74394
2017-03-30T00:43:38.829Z,74392
2017-03-30T00:43:48.914Z,74393
2017-03-30T00:43:59.005Z,74396
2017-03-30T00:44:09.096Z,74391
2017-03-30T00:44:18.905Z,74394
2017-03-30T00:44:28.708Z,74394
2017-03-30T00:44:38.798Z,74392
2017-03-30T00:44:48.886Z,74389
2017-03-30T00:44:58.685Z,74389
2017-03-30T00:45:08.481Z,74392
2017-03-30T00:45:18.569Z,74393
2017-03-30T00:45:28.082Z,74391
2017-03-30T00:45:37.882Z,74386
2017-03-30T00:45:47.975Z,74382
2017-03-30T00:45:58.060Z,74382
2017-03-30T00:46:08.160Z,74385
2017-03-30T00:46:17.972Z,74385
2017-03-30T00:46:27.778Z,74383
2017-03-30T00:46:37.005Z,74388
2017-03-30T00:46:47.091Z,74387
2017-03-30T00:46:57.175Z,74391
2017-03-30T00:47:07.260Z,74386
2017-03-30T00:47:16.774Z,74384
2017-03-30T00:47:26.572Z,74388
2017-03-30T00:47:36.660Z,74386
2017-03-30T00:47:46.748Z,74383
2017-03-30T00:47:56.833Z,74387
2017-03-30T00:48:06.924Z,74385
2017-03-30T00:48:16.726Z,74387
2017-03-30T00:48:26.813Z,74387
2017-03-30T00:48:36.899Z,74383
2017-03-30T00:48:46.696Z,74386
2017-03-30T00:48:56.516Z,74381
2017-03-30T00:49:06.317Z,74386
2017-03-30T00:49:16.413Z,74385
2017-03-30T00:49:26.508Z,74382
2017-03-30T00:49:36.607Z,74383
2017-03-30T00:49:46.700Z,74386
2017-03-30T00:49:56.796Z,74386
2017-03-30T00:50:06.030Z,74388
2017-03-30T00:50:15.838Z,74386
2017-03-30T00:50:25.353Z,74383
2017-03-30T00:50:35.440Z,74382
2017-03-30T00:50:45.533Z,74388
2017-03-30T00:50:55.331Z,74384
2017-03-30T00:51:05.422Z,74384
2017-03-30T00:51:15.222Z,74384
2017-03-30T00:51:25.309Z,74386
2017-03-30T00:51:35.115Z,74381
2017-03-30T00:51:44.635Z,74382
2017-03-30T00:51:54.471Z,74384
2017-03-30T00:52:04.563Z,74381
2017-03-30T00:52:14.649Z,74385
2017-03-30T00:52:24.748Z,74384
2017-03-30T00:52:34.544Z,74382
2017-03-30T00:52:44.636Z,74383
2017-03-30T00:52:54.725Z,74382
2017-03-30T00:53:04.522Z,74381
2017-03-30T00:53:14.610Z,74383
2017-03-30T00:53:24.411Z,74379
2017-03-30T00:53:34.216Z,74384
2017-03-30T00:53:44.013Z,74383
2017-03-30T00:53:54.101Z,74381
2017-03-30T00:54:04.190Z,74382
2017-03-30T00:54:14.284Z,74384
2017-03-30T00:54:24.370Z,74381
2017-03-30T00:54:34.173Z,74380
2017-03-30T00:54:44.263Z,74380
2017-03-30T00:54:53.777Z,74381
2017-03-30T00:55:03.863Z,74381
2017-03-30T00:55:13.953Z,74382
2017-03-30T00:55:24.045Z,74386
2017-03-30T00:55:33.881Z,74383
2017-03-30T00:55:43.966Z,74385
2017-03-30T00:55:54.054Z,74383
2017-03-30T00:56:04.150Z,74384
2017-03-30T00:56:13.960Z,74380
2017-03-30T00:56:23.768Z,74381
2017-03-30T00:56:33.570Z,74378
2017-03-30T00:56:43.661Z,74384
2017-03-30T00:56:53.751Z,74379
2017-03-30T00:57:03.845Z,74380
2017-03-30T00:57:13.933Z,74380
2017-03-30T00:57:23.454Z,74378
2017-03-30T00:57:33.254Z,74379
2017-03-30T00:57:43.338Z,74382
2017-03-30T00:57:53.440Z,74384
2017-03-30T00:58:03.238Z,74382
2017-03-30T00:58:13.330Z,74383
2017-03-30T00:58:23.416Z,74382
2017-03-30T00:58:33.502Z,74382
2017-03-30T00:58:43.304Z,74381
2017-03-30T00:58:53.109Z,74382
2017-03-30T00:59:03.200Z,74381
2017-03-30T00:59:13.284Z,74382
2017-03-30T00:59:23.082Z,74384
2017-03-30T00:59:33.183Z,74378
2017-03-30T00:59:42.987Z,74383
2017-03-30T00:59:53.076Z,74376
2017-03-30T01:00:02.877Z,74378
2017-03-30T01:00:12.393Z,74378
2017-03-30T01:00:22.193Z,74379
2017-03-30T01:00:32.283Z,74381
2017-03-30T01:00:42.089Z,74382
2017-03-30T01:00:52.182Z,74379
2017-03-30T01:01:01.991Z,74380
2017-03-30T01:01:12.082Z,74380
2017-03-30T01:01:22.172Z,74383
2017-03-30T01:01:31.971Z,74380
2017-03-30T01:01:42.057Z,74379
2017-03-30T01:01:51.856Z,74380
2017-03-30T01:02:01.952Z,74381
2017-03-30T01:02:12.045Z,74383
2017-03-30T01:02:21.846Z,74381
2017-03-30T01:02:31.940Z,74383
2017-03-30T01:02:42.026Z,74381
2017-03-30T01:02:51.819Z,74382
2017-03-30T01:03:01.910Z,74382
2017-03-30T01:03:11.711Z,74383
2017-03-30T01:03:21.801Z,74383
2017-03-30T01:03:31.888Z,74383
2017-03-30T01:03:41.974Z,74383
2017-03-30T01:03:51.773Z,74386
2017-03-30T01:04:01.858Z,74382
2017-03-30T01:04:11.949Z,74380
2017-03-30T01:04:22.036Z,74383
2017-03-30T01:04:31.551Z,74382
2017-03-30T01:04:41.639Z,74378
2017-03-30T01:04:51.438Z,74382
2017-03-30T01:05:01.237Z,74382
2017-03-30T01:05:11.042Z,74378
2017-03-30T01:05:21.129Z,74384
2017-03-30T01:05:31.235Z,74381
2017-03-30T01:05:41.042Z,74384
2017-03-30T01:05:51.139Z,74381
2017-03-30T01:06:01.226Z,74383
2017-03-30T01:06:11.027Z,74383
2017-03-30T01:06:21.149Z,74383
2017-03-30T01:06:31.236Z,74381
2017-03-30T01:06:41.317Z,74384
2017-03-30T01:06:51.407Z,74377
2017-03-30T01:07:01.206Z,74379
2017-03-30T01:07:11.004Z,74379
2017-03-30T01:07:20.809Z,74383
2017-03-30T01:07:30.609Z,74380
2017-03-30T01:07:40.699Z,74382
2017-03-30T01:07:50.496Z,74378
2017-03-30T01:08:00.300Z,74382
2017-03-30T01:08:10.100Z,74381
2017-03-30T01:08:20.185Z,74382
2017-03-30T01:08:29.986Z,74382
2017-03-30T01:08:39.789Z,74378
2017-03-30T01:08:49.592Z,74379
2017-03-30T01:08:59.681Z,74379
2017-03-30T01:09:09.486Z,74377
2017-03-30T01:09:19.575Z,74374
2017-03-30T01:09:29.375Z,74376
2017-03-30T01:09:39.462Z,74380
2017-03-30T01:09:49.267Z,74379
2017-03-30T01:09:59.087Z,74379
2017-03-30T01:10:09.181Z,74380
2017-03-30T01:10:19.003Z,74380
2017-03-30T01:10:28.514Z,74377
2017-03-30T01:10:38.604Z,74377
2017-03-30T01:10:48.404Z,74380
2017-03-30T01:10:58.493Z,74380
2017-03-30T01:11:08.584Z,74377
2017-03-30T01:11:18.682Z,74380
2017-03-30T01:11:28.770Z,74381
2017-03-30T01:11:38.858Z,74379
2017-03-30T01:11:48.369Z,74381
2017-03-30T01:11:58.461Z,74377
2017-03-30T01:12:08.554Z,74378
2017-03-30T01:12:18.355Z,74379
2017-03-30T01:12:28.444Z,74382
2017-03-30T01:12:37.960Z,74380
2017-03-30T01:12:48.048Z,74381
2017-03-30T01:12:58.133Z,74379
2017-03-30T01:13:07.932Z,74376
2017-03-30T01:13:18.031Z,74378
2017-03-30T01:13:27.545Z,74380
2017-03-30T01:13:37.639Z,74381
2017-03-30T01:13:47.441Z,74377
2017-03-30T01:13:57.526Z,74378
2017-03-30T01:14:07.039Z,74376
2017-03-30T01:14:17.125Z,74379
2017-03-30T01:14:27.216Z,74382
2017-03-30T01:14:37.015Z,74382
2017-03-30T01:14:47.103Z,74381
2017-03-30T01:14:56.904Z,74380
2017-03-30T01:15:06.703Z,74380
2017-03-30T01:15:16.507Z,74380
2017-03-30T01:15:26.303Z,74381
2017-03-30T01:15:36.388Z,74377
2017-03-30T01:15:46.476Z,74379
2017-03-30T01:15:56.567Z,74375
2017-03-30T01:16:06.652Z,74374
2017-03-30T01:16:16.454Z,74378
2017-03-30T01:16:26.560Z,74383
2017-03-30T01:16:36.646Z,74380
2017-03-30T01:16:46.736Z,74380
2017-03-30T01:16:56.821Z,74379
2017-03-30T01:17:06.919Z,74378
2017-03-30T01:17:17.007Z,74380
2017-03-30T01:17:26.822Z,74375
2017-03-30T01:17:36.629Z,74376
2017-03-30T01:17:46.147Z,74378
2017-03-30T01:17:56.252Z,74378
2017-03-30T01:18:06.346Z,74378
2017-03-30T01:18:16.468Z,74376
2017-03-30T01:18:26.565Z,74379
2017-03-30T01:18:36.650Z,74378
2017-03-30T01:18:46.158Z,74378
2017-03-30T01:18:56.246Z,74377
2017-03-30T01:19:06.333Z,74383
2017-03-30T01:19:16.134Z,74377
2017-03-30T01:19:26.222Z,74376
2017-03-30T01:19:35.733Z,74378
2017-03-30T01:19:45.827Z,74379
2017-03-30T01:19:55.912Z,74374
2017-03-30T01:20:06.002Z,74377
2017-03-30T01:20:16.090Z,74376
2017-03-30T01:20:25.893Z,74376
2017-03-30T01:20:35.982Z,74372
2017-03-30T01:20:45.779Z,74372
2017-03-30T01:20:55.581Z,74374
2017-03-30T01:21:05.675Z,74376
2017-03-30T01:21:15.481Z,74379
2017-03-30T01:21:25.571Z,74378
2017-03-30T01:21:35.379Z,74377
2017-03-30T01:21:45.474Z,74373
2017-03-30T01:21:55.564Z,74379
2017-03-30T01:22:05.371Z,74378
2017-03-30T01:22:15.484Z,74375
2017-03-30T01:22:25.291Z,74376
2017-03-30T01:22:35.089Z,74373
2017-03-30T01:22:45.179Z,74371
2017-03-30T01:22:55.296Z,74376
2017-03-30T01:23:05.098Z,74373
2017-03-30T01:23:15.181Z,74376
2017-03-30T01:23:25.279Z,74373
2017-03-30T01:23:35.087Z,74368
2017-03-30T01:23:45.178Z,74371
2017-03-30T01:23:55.269Z,74373
2017-03-30T01:24:05.369Z,74371
2017-03-30T01:24:15.174Z,74371
2017-03-30T01:24:25.261Z,74371
2017-03-30T01:24:34.779Z,74373
2017-03-30T01:24:44.867Z,74377
2017-03-30T01:24:54.667Z,74370
2017-03-30T01:25:04.183Z,74371
2017-03-30T01:25:14.277Z,74371
2017-03-30T01:25:24.399Z,74373
2017-03-30T01:25:34.489Z,74372
2017-03-30T01:25:44.006Z,74370
2017-03-30T01:25:53.805Z,74368
2017-03-30T01:26:03.893Z,74365
2017-03-30T01:26:13.985Z,74367
2017-03-30T01:26:23.787Z,74365
2017-03-30T01:26:33.877Z,74364
2017-03-30T01:26:43.679Z,74367
2017-03-30T01:26:53.793Z,74366
2017-03-30T01:27:03.594Z,74365
2017-03-30T01:27:13.116Z,74369
2017-03-30T01:27:23.213Z,74369
2017-03-30T01:27:33.015Z,74370
2017-03-30T01:27:43.100Z,74368
2017-03-30T01:27:52.906Z,74365
2017-03-30T01:28:02.420Z,74363
2017-03-30T01:28:11.930Z,74367
2017-03-30T01:28:21.729Z,74369
2017-03-30T01:28:31.813Z,74366
2017-03-30T01:28:41.901Z,74362
2017-03-30T01:28:51.416Z,74367
2017-03-30T01:29:01.519Z,74370
2017-03-30T01:29:11.611Z,74365
2017-03-30T01:29:21.700Z,74365
2017-03-30T01:29:31.787Z,74369
2017-03-30T01:29:41.588Z,74368
2017-03-30T01:29:51.105Z,74369
2017-03-30T01:30:01.195Z,74372
2017-03-30T01:30:11.283Z,74369
2017-03-30T01:30:21.374Z,74368
2017-03-30T01:30:31.175Z,74369
2017-03-30T01:30:40.975Z,74367
2017-03-30T01:30:51.071Z,74368
2017-03-30T01:31:00.879Z,74368
2017-03-30T01:31:10.969Z,74370
2017-03-30T01:31:21.061Z,74369
2017-03-30T01:31:31.154Z,74366
2017-03-30T01:31:40.954Z,74371
2017-03-30T01:31:50.755Z,74371
2017-03-30T01:32:00.851Z,74372
2017-03-30T01:32:10.659Z,74366
2017-03-30T01:32:20.465Z,74366
2017-03-30T01:32:29.974Z,74369
2017-03-30T01:32:40.065Z,74368
2017-03-30T01:32:49.576Z,74368
2017-03-30T01:32:59.669Z,74369
2017-03-30T01:33:09.760Z,74366
2017-03-30T01:33:19.561Z,74366
2017-03-30T01:33:29.652Z,74368
2017-03-30T01:33:39.739Z,74365
2017-03-30T01:33:48.967Z,74366
2017-03-30T01:33:59.056Z,74369
2017-03-30T01:34:09.140Z,74367
2017-03-30T01:34:19.224Z,74371
2017-03-30T01:34:28.731Z,74369
2017-03-30T01:34:38.539Z,74367
2017-03-30T01:34:48.054Z,74366
2017-03-30T01:34:57.855Z,74366
2017-03-30T01:35:07.951Z,74365
2017-03-30T01:35:18.050Z,74362
2017-03-30T01:35:27.854Z,74365
2017-03-30T01:35:37.946Z,74365
2017-03-30T01:35:48.034Z,74367
2017-03-30T01:35:58.124Z,74362
2017-03-30T01:36:08.212Z,74366
2017-03-30T01:36:18.300Z,74363
2017-03-30T01:36:28.385Z,74364
2017-03-30T01:36:37.933Z,74362
2017-03-30T01:36:47.736Z,74362
2017-03-30T01:36:57.829Z,74363
2017-03-30T01:37:07.632Z,74362
2017-03-30T01:37:17.717Z,74367
2017-03-30T01:37:27.523Z,74364
2017-03-30T01:37:36.753Z,74365
2017-03-30T01:37:46.849Z,74366
2017-03-30T01:37:56.934Z,74365
2017-03-30T01:38:06.736Z,74366
2017-03-30T01:38:16.819Z,74361
2017-03-30T01:38:26.623Z,74362
2017-03-30T01:38:36.713Z,74365
2017-03-30T01:38:46.517Z,74365
2017-03-30T01:38:56.611Z,74362
2017-03-30T01:39:06.410Z,74367
2017-03-30T01:39:16.501Z,74366
2017-03-30T01:39:26.307Z,74366
2017-03-30T01:39:36.135Z,74368
2017-03-30T01:39:45.940Z,74365
2017-03-30T01:39:56.048Z,74366
2017-03-30T01:40:06.139Z,74366
2017-03-30T01:40:16.228Z,74367
2017-03-30T01:40:26.031Z,74365
2017-03-30T01:40:35.545Z,74366
2017-03-30T01:40:45.637Z,74368
2017-03-30T01:40:55.723Z,74364
2017-03-30T01:41:05.818Z,74363
2017-03-30T01:41:15.907Z,74365
2017-03-30T01:41:25.709Z,74367
2017-03-30T01:41:35.800Z,74367
2017-03-30T01:41:45.891Z,74365
2017-03-30T01:41:55.694Z,74362
2017-03-30T01:42:05.780Z,74366
2017-03-30T01:42:15.581Z,74365
2017-03-30T01:42:25.100Z,74360
2017-03-30T01:42:34.899Z,74364
2017-03-30T01:42:44.986Z,74367
2017-03-30T01:42:54.795Z,74362
2017-03-30T01:43:04.887Z,74364
2017-03-30T01:43:14.976Z,74368
2017-03-30T01:43:25.064Z,74365
2017-03-30T01:43:35.153Z,74361
2017-03-30T01:43:44.958Z,74362
2017-03-30T01:43:55.045Z,74364
2017-03-30T01:44:05.146Z,74363
2017-03-30T01:44:14.948Z,74366
2017-03-30T01:44:25.033Z,74366
2017-03-30T01:44:35.126Z,74365
2017-03-30T01:44:44.925Z,74360
2017-03-30T01:44:54.730Z,74366
2017-03-30T01:45:04.538Z,74364
2017-03-30T01:45:14.341Z,74363
2017-03-30T01:45:24.145Z,74364
2017-03-30T01:45:34.236Z,74365
2017-03-30T01:45:44.320Z,74366
2017-03-30T01:45:54.413Z,74363
2017-03-30T01:46:03.929Z,74368
2017-03-30T01:46:14.026Z,74364
2017-03-30T01:46:23.539Z,74363
2017-03-30T01:46:33.630Z,74368
2017-03-30T01:46:43.726Z,74366
2017-03-30T01:46:53.813Z,74367
2017-03-30T01:47:03.612Z,74368
2017-03-30T01:47:13.410Z,74366
2017-03-30T01:47:23.209Z,74364
2017-03-30T01:47:33.015Z,74366
2017-03-30T01:47:43.103Z,74365
2017-03-30T01:47:53.193Z,74368
2017-03-30T01:48:02.997Z,74366
2017-03-30T01:48:12.793Z,74368
2017-03-30T01:48:22.597Z,74359
2017-03-30T01:48:32.684Z,74363
2017-03-30T01:48:42.774Z,74366
2017-03-30T01:48:52.004Z,74362
2017-03-30T01:49:01.521Z,74366
2017-03-30T01:49:11.610Z,74364
2017-03-30T01:49:21.696Z,74366
2017-03-30T01:49:31.494Z,74369
2017-03-30T01:49:41.594Z,74367
2017-03-30T01:49:51.688Z,74364
2017-03-30T01:50:01.516Z,74361
2017-03-30T01:50:11.318Z,74361
2017-03-30T01:50:21.413Z,74364
2017-03-30T01:50:31.506Z,74361
2017-03-30T01:50:41.599Z,74365
2017-03-30T01:50:51.403Z,74365
2017-03-30T01:51:01.492Z,74364
2017-03-30T01:51:11.584Z,74367
2017-03-30T01:51:21.390Z,74361
2017-03-30T01:51:31.191Z,74361
2017-03-30T01:51:41.287Z,74361
2017-03-30T01:51:51.380Z,74360
2017-03-30T01:52:01.184Z,74360
2017-03-30T01:52:11.278Z,74361
2017-03-30T01:52:21.074Z,74363
2017-03-30T01:52:31.163Z,74365
2017-03-30T01:52:41.256Z,74361
2017-03-30T01:52:51.346Z,74361
2017-03-30T01:53:01.453Z,74367
2017-03-30T01:53:11.253Z,74364
2017-03-30T01:53:21.344Z,74362
2017-03-30T01:53:31.432Z,74359
2017-03-30T01:53:41.240Z,74363
2017-03-30T01:53:51.325Z,74362
2017-03-30T01:54:01.408Z,74363
2017-03-30T01:54:11.496Z,74362
2017-03-30T01:54:21.010Z,74365
2017-03-30T01:54:31.099Z,74362
2017-03-30T01:54:41.192Z,74365
2017-03-30T01:54:51.281Z,74369
2017-03-30T01:55:01.083Z,74364
2017-03-30T01:55:11.186Z,74366
2017-03-30T01:55:21.280Z,74361
2017-03-30T01:55:30.798Z,74359
2017-03-30T01:55:40.887Z,74360
2017-03-30T01:55:50.976Z,74364
2017-03-30T01:56:01.069Z,74361
2017-03-30T01:56:10.869Z,74359
2017-03-30T01:56:20.955Z,74360
2017-03-30T01:56:30.762Z,74363
2017-03-30T01:56:40.562Z,74362
2017-03-30T01:56:50.074Z,74364
2017-03-30T01:56:59.873Z,74359
2017-03-30T01:57:09.958Z,74361
2017-03-30T01:57:20.057Z,74362
2017-03-30T01:57:30.149Z,74359
2017-03-30T01:57:40.236Z,74364
2017-03-30T01:57:49.757Z,74361
2017-03-30T01:57:59.848Z,74363
2017-03-30T01:58:09.647Z,74361
2017-03-30T01:58:19.730Z,74364
2017-03-30T01:58:29.534Z,74356
2017-03-30T01:58:39.620Z,74355
2017-03-30T01:58:49.710Z,74360
2017-03-30T01:58:59.797Z,74360
2017-03-30T01:59:09.889Z,74360
2017-03-30T01:59:19.977Z,74362
2017-03-30T01:59:29.777Z,74365
2017-03-30T01:59:39.867Z,74362
2017-03-30T01:59:49.959Z,74359
2017-03-30T02:00:00.043Z,74358
2017-03-30T02:00:10.142Z,74362
2017-03-30T02:00:20.234Z,74358
2017-03-30T02:00:30.326Z,74363
2017-03-30T02:00:40.419Z,74362
2017-03-30T02:00:50.507Z,74364
2017-03-30T02:01:00.604Z,74360
2017-03-30T02:01:10.698Z,74357
2017-03-30T02:01:20.785Z,74365
2017-03-30T02:01:30.302Z,74362
2017-03-30T02:01:40.389Z,74360
2017-03-30T02:01:50.486Z,74362
2017-03-30T02:02:00.577Z,74363
2017-03-30T02:02:10.386Z,74358
2017-03-30T02:02:20.477Z,74359
2017-03-30T02:02:30.565Z,74364
2017-03-30T02:02:40.653Z,74360
2017-03-30T02:02:50.170Z,74360
2017-03-30T02:03:00.261Z,74359
2017-03-30T02:03:10.352Z,74360
2017-03-30T02:03:20.448Z,74361
2017-03-30T02:03:30.532Z,74356
2017-03-30T02:03:40.621Z,74357
2017-03-30T02:03:50.431Z,74359
2017-03-30T02:04:00.516Z,74359
2017-03-30T02:04:10.608Z,74358
2017-03-30T02:04:20.697Z,74355
2017-03-30T02:04:29.926Z,74357
2017-03-30T02:04:40.018Z,74354
2017-03-30T02:04:50.109Z,74360
2017-03-30T02:04:59.915Z,74360
2017-03-30T02:05:10.008Z,74356
2017-03-30T02:05:20.095Z,74359
2017-03-30T02:05:29.896Z,74358
2017-03-30T02:05:39.410Z,74360
2017-03-30T02:05:49.211Z,74358
2017-03-30T02:05:59.303Z,74356
2017-03-30T02:06:09.141Z,74356
2017-03-30T02:06:19.234Z,74353
2017-03-30T02:06:29.319Z,74353
2017-03-30T02:06:39.120Z,74357
2017-03-30T02:06:48.923Z,74356
2017-03-30T02:06:59.023Z,74356
2017-03-30T02:07:08.825Z,74357
2017-03-30T02:07:18.917Z,74353
2017-03-30T02:07:29.010Z,74357
2017-03-30T02:07:39.099Z,74358
2017-03-30T02:07:49.191Z,74352
2017-03-30T02:07:59.296Z,74357
2017-03-30T02:08:09.384Z,74357